Terminal Aerodrome Forecast
Issued by NWS

Home | Current Version | Previous Version | Text Only | Print | Product List | Glossary On
Versions: 1 2 3 4 5 6 7 8 9 10 11 12 13 14 15 16 17
000
FTUS41 KILN 291100
TAFLUK
TAF
KLUK 291120Z 2912/3012 04003KT P6SM SCT150
     FM291500 13006KT P6SM FEW060 SCT150
     FM292200 14005KT P6SM VCSH SCT060 BKN200
     FM300000 00000KT P6SM SCT050 BKN200
     FM300900 00000KT 5SM BR SCT050 BKN200=

USA.gov is the U.S. government's official web portal to all federal, state and local government web resources and services.